sensor_id;sensor_type;location;lat;lon;timestamp;P1;durP1;ratioP1;P2;durP2;ratioP2
4634;SDS011;2330;48.158;11.816;2024-01-15T00:00:20;7.47;;;6.88;;
4634;SDS011;2330;48.158;11.816;2024-01-15T00:02:47;6.47;;;5.97;;
4634;SDS011;2330;48.158;11.816;2024-01-15T00:05:14;6.03;;;5.63;;
4634;SDS011;2330;48.158;11.816;2024-01-15T00:07:40;6.13;;;5.63;;
4634;SDS011;2330;48.158;11.816;2024-01-15T00:10:07;6.00;;;5.50;;
4634;SDS011;2330;48.158;11.816;2024-01-15T00:12:34;5.78;;;5.38;;
4634;SDS011;2330;48.158;11.816;2024-01-15T00:15:01;5.60;;;5.20;;
4634;SDS011;2330;48.158;11.816;2024-01-15T00:17:28;6.45;;;5.85;;
4634;SDS011;2330;48.158;11.816;2024-01-15T00:19:55;6.55;;;6.05;;
4634;SDS011;2330;48.158;11.816;2024-01-15T00:22:25;6.00;;;5.40;;
4634;SDS011;2330;48.158;11.816;2024-01-15T00:24:53;6.07;;;5.50;;
4634;SDS011;2330;48.158;11.816;2024-01-15T00:27:20;5.70;;;5.28;;
4634;SDS011;2330;48.158;11.816;2024-01-15T00:29:47;6.35;;;5.85;;
4634;SDS011;2330;48.158;11.816;2024-01-15T00:32:14;6.93;;;6.10;;
4634;SDS011;2330;48.158;11.816;2024-01-15T00:34:41;5.72;;;5.22;;
4634;SDS011;2330;48.158;11.816;2024-01-15T00:37:08;6.30;;;5.80;;
4634;SDS011;2330;48.158;11.816;2024-01-15T00:39:35;6.68;;;6.18;;
4634;SDS011;2330;48.158;11.816;2024-01-15T00:42:02;6.95;;;6.35;;
4634;SDS011;2330;48.158;11.816;2024-01-15T00:44:29;6.50;;;5.90;;
4634;SDS011;2330;48.158;11.816;2024-01-15T00:46:56;6.20;;;5.70;;
4634;SDS011;2330;48.158;11.816;2024-01-15T00:49:23;6.10;;;5.60;;
4634;SDS011;2330;48.158;11.816;2024-01-15T00:51:50;6.50;;;5.90;;
4634;SDS011;2330;48.158;11.816;2024-01-15T00:54:17;7.25;;;6.55;;
4634;SDS011;2330;48.158;11.816;2024-01-15T00:56:44;6.82;;;6.22;;
4634;SDS011;2330;48.158;11.816;2024-01-15T00:59:11;7.30;;;6.65;;
4634;SDS011;2330;48.158;11.816;2024-01-15T01:01:41;7.13;;;6.53;;
4634;SDS011;2330;48.158;11.816;2024-01-15T01:04:09;6.90;;;6.32;;
4634;SDS011;2330;48.158;11.816;2024-01-15T01:06:36;7.60;;;7.00;;
4634;SDS011;2330;48.158;11.816;2024-01-15T01:09:03;7.72;;;7.13;;
4634;SDS011;2330;48.158;11.816;2024-01-15T01:11:31;8.25;;;7.65;;
4634;SDS011;2330;48.158;11.816;2024-01-15T01:13:57;8.90;;;8.10;;
4634;SDS011;2330;48.158;11.816;2024-01-15T01:16:24;9.57;;;8.77;;
4634;SDS011;2330;48.158;11.816;2024-01-15T01:18:51;9.70;;;8.80;;
4634;SDS011;2330;48.158;11.816;2024-01-15T01:21:18;9.43;;;8.57;;
4634;SDS011;2330;48.158;11.816;2024-01-15T01:23:45;9.70;;;8.93;;
4634;SDS011;2330;48.158;11.816;2024-01-15T01:26:15;9.38;;;8.57;;
4634;SDS011;2330;48.158;11.816;2024-01-15T01:28:42;9.50;;;8.70;;
4634;SDS011;2330;48.158;11.816;2024-01-15T01:31:09;9.57;;;8.68;;
4634;SDS011;2330;48.158;11.816;2024-01-15T01:33:37;8.63;;;7.93;;
4634;SDS011;2330;48.158;11.816;2024-01-15T01:36:09;9.10;;;8.30;;
4634;SDS011;2330;48.158;11.816;2024-01-15T01:38:36;9.30;;;8.50;;
4634;SDS011;2330;48.158;11.816;2024-01-15T01:41:03;9.57;;;8.68;;
4634;SDS011;2330;48.158;11.816;2024-01-15T01:43:30;8.23;;;7.53;;
4634;SDS011;2330;48.158;11.816;2024-01-15T01:45:57;8.40;;;7.60;;
4634;SDS011;2330;48.158;11.816;2024-01-15T01:48:26;7.15;;;6.55;;
4634;SDS011;2330;48.158;11.816;2024-01-15T01:50:54;8.80;;;8.10;;
4634;SDS011;2330;48.158;11.816;2024-01-15T01:53:23;7.47;;;6.78;;
4634;SDS011;2330;48.158;11.816;2024-01-15T01:55:53;7.13;;;6.53;;
4634;SDS011;2330;48.158;11.816;2024-01-15T01:58:20;6.53;;;5.97;;
4634;SDS011;2330;48.158;11.816;2024-01-15T02:00:47;7.20;;;6.70;;
4634;SDS011;2330;48.158;11.816;2024-01-15T02:03:15;7.22;;;6.63;;
4634;SDS011;2330;48.158;11.816;2024-01-15T02:05:42;7.45;;;6.85;;
4634;SDS011;2330;48.158;11.816;2024-01-15T02:08:11;6.90;;;6.20;;
4634;SDS011;2330;48.158;11.816;2024-01-15T02:10:37;7.82;;;7.13;;
4634;SDS011;2330;48.158;11.816;2024-01-15T02:13:04;6.60;;;6.00;;
4634;SDS011;2330;48.158;11.816;2024-01-15T02:15:31;8.18;;;6.60;;
4634;SDS011;2330;48.158;11.816;2024-01-15T02:20:30;7.07;;;6.47;;
4634;SDS011;2330;48.158;11.816;2024-01-15T02:23:11;7.00;;;6.40;;
4634;SDS011;2330;48.158;11.816;2024-01-15T02:25:45;6.80;;;6.20;;
4634;SDS011;2330;48.158;11.816;2024-01-15T02:28:16;5.50;;;5.10;;
4634;SDS011;2330;48.158;11.816;2024-01-15T02:30:43;7.28;;;6.57;;
4634;SDS011;2330;48.158;11.816;2024-01-15T02:33:11;6.75;;;6.25;;
4634;SDS011;2330;48.158;11.816;2024-01-15T02:35:39;6.55;;;6.05;;
4634;SDS011;2330;48.158;11.816;2024-01-15T02:38:06;6.57;;;6.07;;
4634;SDS011;2330;48.158;11.816;2024-01-15T02:40:34;5.93;;;5.43;;
4634;SDS011;2330;48.158;11.816;2024-01-15T02:43:01;7.28;;;6.57;;
4634;SDS011;2330;48.158;11.816;2024-01-15T02:45:28;6.40;;;5.90;;
4634;SDS011;2330;48.158;11.816;2024-01-15T02:47:55;6.90;;;6.30;;
4634;SDS011;2330;48.158;11.816;2024-01-15T02:50:22;6.75;;;6.25;;
4634;SDS011;2330;48.158;11.816;2024-01-15T02:52:49;7.03;;;6.43;;
4634;SDS011;2330;48.158;11.816;2024-01-15T02:55:15;7.65;;;6.97;;
4634;SDS011;2330;48.158;11.816;2024-01-15T02:57:42;6.88;;;6.28;;
4634;SDS011;2330;48.158;11.816;2024-01-15T03:00:09;6.70;;;6.20;;
4634;SDS011;2330;48.158;11.816;2024-01-15T03:02:39;7.40;;;6.80;;
4634;SDS011;2330;48.158;11.816;2024-01-15T03:05:10;7.07;;;6.50;;
4634;SDS011;2330;48.158;11.816;2024-01-15T03:07:37;8.05;;;7.35;;
4634;SDS011;2330;48.158;11.816;2024-01-15T03:10:04;7.65;;;7.05;;
4634;SDS011;2330;48.158;11.816;2024-01-15T03:12:32;7.97;;;7.18;;
4634;SDS011;2330;48.158;11.816;2024-01-15T03:14:59;7.90;;;7.20;;
4634;SDS011;2330;48.158;11.816;2024-01-15T03:17:26;6.63;;;6.03;;
4634;SDS011;2330;48.158;11.816;2024-01-15T03:19:53;7.53;;;6.82;;
4634;SDS011;2330;48.158;11.816;2024-01-15T03:22:20;7.57;;;6.97;;
4634;SDS011;2330;48.158;11.816;2024-01-15T03:24:47;7.20;;;6.57;;
4634;SDS011;2330;48.158;11.816;2024-01-15T03:27:14;7.03;;;6.43;;
4634;SDS011;2330;48.158;11.816;2024-01-15T03:29:41;7.65;;;6.95;;
4634;SDS011;2330;48.158;11.816;2024-01-15T03:32:07;7.55;;;6.85;;
4634;SDS011;2330;48.158;11.816;2024-01-15T03:34:34;7.30;;;6.50;;
4634;SDS011;2330;48.158;11.816;2024-01-15T03:37:02;7.57;;;6.75;;
4634;SDS011;2330;48.158;11.816;2024-01-15T03:39:28;7.15;;;6.55;;
4634;SDS011;2330;48.158;11.816;2024-01-15T03:41:55;7.60;;;6.90;;
4634;SDS011;2330;48.158;11.816;2024-01-15T03:44:22;7.07;;;6.40;;
4634;SDS011;2330;48.158;11.816;2024-01-15T03:46:49;7.60;;;6.90;;
4634;SDS011;2330;48.158;11.816;2024-01-15T03:49:16;7.70;;;7.00;;
4634;SDS011;2330;48.158;11.816;2024-01-15T03:51:43;7.15;;;6.55;;
4634;SDS011;2330;48.158;11.816;2024-01-15T03:54:11;7.70;;;6.90;;
4634;SDS011;2330;48.158;11.816;2024-01-15T03:56:38;6.88;;;6.28;;
4634;SDS011;2330;48.158;11.816;2024-01-15T03:59:04;7.22;;;6.63;;
4634;SDS011;2330;48.158;11.816;2024-01-15T04:01:31;7.70;;;7.00;;
4634;SDS011;2330;48.158;11.816;2024-01-15T04:03:58;6.90;;;6.30;;
4634;SDS011;2330;48.158;11.816;2024-01-15T04:06:25;6.90;;;6.30;;
4634;SDS011;2330;48.158;11.816;2024-01-15T04:08:52;7.10;;;6.50;;
4634;SDS011;2330;48.158;11.816;2024-01-15T04:11:18;6.85;;;6.35;;
4634;SDS011;2330;48.158;11.816;2024-01-15T04:13:45;6.63;;;6.13;;
4634;SDS011;2330;48.158;11.816;2024-01-15T04:16:12;7.00;;;6.40;;
4634;SDS011;2330;48.158;11.816;2024-01-15T04:18:38;6.63;;;6.13;;
4634;SDS011;2330;48.158;11.816;2024-01-15T04:21:06;6.13;;;5.63;;
4634;SDS011;2330;48.158;11.816;2024-01-15T04:23:33;6.47;;;5.97;;
4634;SDS011;2330;48.158;11.816;2024-01-15T04:26:00;6.43;;;5.93;;
4634;SDS011;2330;48.158;11.816;2024-01-15T04:28:27;6.55;;;5.95;;
4634;SDS011;2330;48.158;11.816;2024-01-15T04:30:53;6.40;;;5.93;;
4634;SDS011;2330;48.158;11.816;2024-01-15T04:33:20;6.50;;;6.00;;
4634;SDS011;2330;48.158;11.816;2024-01-15T04:35:47;6.82;;;6.20;;
4634;SDS011;2330;48.158;11.816;2024-01-15T04:38:15;6.18;;;5.68;;
4634;SDS011;2330;48.158;11.816;2024-01-15T04:40:42;7.28;;;6.68;;
4634;SDS011;2330;48.158;11.816;2024-01-15T04:43:08;6.97;;;6.38;;
4634;SDS011;2330;48.158;11.816;2024-01-15T04:45:35;7.30;;;6.70;;
4634;SDS011;2330;48.158;11.816;2024-01-15T04:48:02;7.03;;;6.43;;
4634;SDS011;2330;48.158;11.816;2024-01-15T04:50:29;6.40;;;5.90;;
4634;SDS011;2330;48.158;11.816;2024-01-15T04:52:56;6.75;;;6.15;;
4634;SDS011;2330;48.158;11.816;2024-01-15T04:55:23;6.75;;;6.15;;
4634;SDS011;2330;48.158;11.816;2024-01-15T04:57:49;7.03;;;6.35;;
4634;SDS011;2330;48.158;11.816;2024-01-15T05:00:16;6.22;;;5.75;;
4634;SDS011;2330;48.158;11.816;2024-01-15T05:02:43;6.78;;;6.25;;
4634;SDS011;2330;48.158;11.816;2024-01-15T05:05:10;7.00;;;6.40;;
4634;SDS011;2330;48.158;11.816;2024-01-15T05:07:37;6.75;;;6.15;;
4634;SDS011;2330;48.158;11.816;2024-01-15T05:10:04;5.80;;;5.40;;
4634;SDS011;2330;48.158;11.816;2024-01-15T05:12:32;6.07;;;5.57;;
4634;SDS011;2330;48.158;11.816;2024-01-15T05:14:59;6.85;;;6.25;;
4634;SDS011;2330;48.158;11.816;2024-01-15T05:17:26;6.00;;;5.50;;
4634;SDS011;2330;48.158;11.816;2024-01-15T05:19:53;6.25;;;5.75;;
4634;SDS011;2330;48.158;11.816;2024-01-15T05:22:20;5.93;;;5.53;;
4634;SDS011;2330;48.158;11.816;2024-01-15T05:24:47;7.28;;;5.43;;
4634;SDS011;2330;48.158;11.816;2024-01-15T05:27:14;5.95;;;5.45;;
4634;SDS011;2330;48.158;11.816;2024-01-15T05:29:41;5.20;;;4.80;;
4634;SDS011;2330;48.158;11.816;2024-01-15T05:32:08;5.40;;;4.90;;
4634;SDS011;2330;48.158;11.816;2024-01-15T05:34:35;6.75;;;5.60;;
4634;SDS011;2330;48.158;11.816;2024-01-15T05:37:02;5.80;;;5.30;;
4634;SDS011;2330;48.158;11.816;2024-01-15T05:39:28;7.05;;;6.45;;
4634;SDS011;2330;48.158;11.816;2024-01-15T05:41:55;5.95;;;5.45;;
4634;SDS011;2330;48.158;11.816;2024-01-15T05:44:22;5.93;;;5.53;;
4634;SDS011;2330;48.158;11.816;2024-01-15T05:46:49;5.28;;;4.82;;
4634;SDS011;2330;48.158;11.816;2024-01-15T05:49:15;5.93;;;5.43;;
4634;SDS011;2330;48.158;11.816;2024-01-15T05:51:42;5.53;;;5.13;;
4634;SDS011;2330;48.158;11.816;2024-01-15T05:54:09;5.75;;;5.25;;
4634;SDS011;2330;48.158;11.816;2024-01-15T05:56:36;6.88;;;6.20;;
4634;SDS011;2330;48.158;11.816;2024-01-15T05:59:03;5.22;;;4.70;;
4634;SDS011;2330;48.158;11.816;2024-01-15T06:01:29;5.55;;;5.10;;
4634;SDS011;2330;48.158;11.816;2024-01-15T06:03:56;6.00;;;5.40;;
4634;SDS011;2330;48.158;11.816;2024-01-15T06:06:23;5.10;;;4.70;;
4634;SDS011;2330;48.158;11.816;2024-01-15T06:08:50;5.07;;;4.68;;
4634;SDS011;2330;48.158;11.816;2024-01-15T06:11:17;4.93;;;4.60;;
4634;SDS011;2330;48.158;11.816;2024-01-15T06:13:43;5.35;;;4.70;;
4634;SDS011;2330;48.158;11.816;2024-01-15T06:16:16;4.85;;;4.55;;
4634;SDS011;2330;48.158;11.816;2024-01-15T06:18:45;5.13;;;4.75;;
4634;SDS011;2330;48.158;11.816;2024-01-15T06:21:12;5.00;;;4.50;;
4634;SDS011;2330;48.158;11.816;2024-01-15T06:23:40;5.60;;;5.10;;
4634;SDS011;2330;48.158;11.816;2024-01-15T06:26:07;5.88;;;5.38;;
4634;SDS011;2330;48.158;11.816;2024-01-15T06:28:34;5.78;;;5.38;;
4634;SDS011;2330;48.158;11.816;2024-01-15T06:31:01;4.68;;;4.35;;
4634;SDS011;2330;48.158;11.816;2024-01-15T06:33:28;5.35;;;4.95;;
4634;SDS011;2330;48.158;11.816;2024-01-15T06:35:55;4.60;;;4.20;;
4634;SDS011;2330;48.158;11.816;2024-01-15T06:38:22;4.63;;;4.10;;
4634;SDS011;2330;48.158;11.816;2024-01-15T06:40:49;4.97;;;4.55;;
4634;SDS011;2330;48.158;11.816;2024-01-15T06:43:19;3.92;;;3.65;;
4634;SDS011;2330;48.158;11.816;2024-01-15T06:45:46;4.57;;;4.28;;
4634;SDS011;2330;48.158;11.816;2024-01-15T06:48:13;4.50;;;4.20;;
4634;SDS011;2330;48.158;11.816;2024-01-15T06:50:42;4.20;;;3.90;;
4634;SDS011;2330;48.158;11.816;2024-01-15T06:53:09;4.93;;;4.53;;
4634;SDS011;2330;48.158;11.816;2024-01-15T06:55:37;4.40;;;4.00;;
4634;SDS011;2330;48.158;11.816;2024-01-15T06:58:04;5.10;;;4.70;;
4634;SDS011;2330;48.158;11.816;2024-01-15T07:00:31;5.20;;;4.75;;
4634;SDS011;2330;48.158;11.816;2024-01-15T07:02:58;4.45;;;4.05;;
4634;SDS011;2330;48.158;11.816;2024-01-15T07:05:25;5.65;;;5.25;;
4634;SDS011;2330;48.158;11.816;2024-01-15T07:07:52;4.80;;;4.50;;
4634;SDS011;2330;48.158;11.816;2024-01-15T07:10:19;5.03;;;4.53;;
4634;SDS011;2330;48.158;11.816;2024-01-15T07:12:45;4.65;;;4.35;;
4634;SDS011;2330;48.158;11.816;2024-01-15T07:15:12;4.18;;;3.78;;
4634;SDS011;2330;48.158;11.816;2024-01-15T07:17:39;4.93;;;4.53;;
4634;SDS011;2330;48.158;11.816;2024-01-15T07:20:07;4.53;;;4.22;;
4634;SDS011;2330;48.158;11.816;2024-01-15T07:22:37;4.97;;;4.47;;
4634;SDS011;2330;48.158;11.816;2024-01-15T07:25:05;4.95;;;4.65;;
4634;SDS011;2330;48.158;11.816;2024-01-15T07:27:33;4.82;;;4.43;;
4634;SDS011;2330;48.158;11.816;2024-01-15T07:30:00;4.35;;;4.05;;
4634;SDS011;2330;48.158;11.816;2024-01-15T07:32:28;4.97;;;4.57;;
4634;SDS011;2330;48.158;11.816;2024-01-15T07:34:55;4.93;;;4.60;;
4634;SDS011;2330;48.158;11.816;2024-01-15T07:37:22;5.40;;;4.90;;
4634;SDS011;2330;48.158;11.816;2024-01-15T07:39:49;4.85;;;4.45;;
4634;SDS011;2330;48.158;11.816;2024-01-15T07:42:16;4.80;;;4.40;;
4634;SDS011;2330;48.158;11.816;2024-01-15T07:44:43;4.80;;;4.43;;
4634;SDS011;2330;48.158;11.816;2024-01-15T07:47:11;5.15;;;4.75;;
4634;SDS011;2330;48.158;11.816;2024-01-15T07:49:38;5.60;;;5.20;;
4634;SDS011;2330;48.158;11.816;2024-01-15T07:52:05;4.85;;;4.55;;
4634;SDS011;2330;48.158;11.816;2024-01-15T07:54:32;4.90;;;4.50;;
4634;SDS011;2330;48.158;11.816;2024-01-15T07:57:00;5.15;;;4.70;;
4634;SDS011;2330;48.158;11.816;2024-01-15T07:59:31;6.30;;;5.70;;
4634;SDS011;2330;48.158;11.816;2024-01-15T08:01:58;5.97;;;5.55;;
4634;SDS011;2330;48.158;11.816;2024-01-15T08:04:26;7.20;;;6.60;;
4634;SDS011;2330;48.158;11.816;2024-01-15T08:06:53;7.00;;;6.45;;
4634;SDS011;2330;48.158;11.816;2024-01-15T08:09:20;5.85;;;5.45;;
4634;SDS011;2330;48.158;11.816;2024-01-15T08:11:47;5.55;;;5.15;;
4634;SDS011;2330;48.158;11.816;2024-01-15T08:14:15;5.80;;;5.40;;
4634;SDS011;2330;48.158;11.816;2024-01-15T08:16:42;6.72;;;6.05;;
4634;SDS011;2330;48.158;11.816;2024-01-15T08:19:10;5.75;;;5.25;;
4634;SDS011;2330;48.158;11.816;2024-01-15T08:21:37;5.82;;;5.38;;
4634;SDS011;2330;48.158;11.816;2024-01-15T08:24:04;6.43;;;5.43;;
4634;SDS011;2330;48.158;11.816;2024-01-15T08:26:31;5.85;;;5.35;;
4634;SDS011;2330;48.158;11.816;2024-01-15T08:28:59;6.05;;;5.55;;
4634;SDS011;2330;48.158;11.816;2024-01-15T08:31:25;5.60;;;5.18;;
4634;SDS011;2330;48.158;11.816;2024-01-15T08:33:53;6.07;;;5.47;;
4634;SDS011;2330;48.158;11.816;2024-01-15T08:36:21;5.70;;;5.20;;
4634;SDS011;2330;48.158;11.816;2024-01-15T08:38:48;6.43;;;5.85;;
4634;SDS011;2330;48.158;11.816;2024-01-15T08:41:15;5.20;;;4.85;;
4634;SDS011;2330;48.158;11.816;2024-01-15T08:43:42;7.65;;;6.20;;
4634;SDS011;2330;48.158;11.816;2024-01-15T08:46:09;6.10;;;5.60;;
4634;SDS011;2330;48.158;11.816;2024-01-15T08:48:36;6.35;;;5.78;;
4634;SDS011;2330;48.158;11.816;2024-01-15T08:51:03;6.90;;;6.30;;
4634;SDS011;2330;48.158;11.816;2024-01-15T08:53:30;6.05;;;5.55;;
4634;SDS011;2330;48.158;11.816;2024-01-15T08:55:57;5.80;;;5.30;;
4634;SDS011;2330;48.158;11.816;2024-01-15T08:58:24;6.63;;;5.85;;
4634;SDS011;2330;48.158;11.816;2024-01-15T09:00:51;5.70;;;5.30;;
4634;SDS011;2330;48.158;11.816;2024-01-15T09:03:18;5.35;;;4.95;;
4634;SDS011;2330;48.158;11.816;2024-01-15T09:05:45;5.70;;;5.20;;
4634;SDS011;2330;48.158;11.816;2024-01-15T09:08:12;5.50;;;5.00;;
4634;SDS011;2330;48.158;11.816;2024-01-15T09:10:40;4.82;;;4.53;;
4634;SDS011;2330;48.158;11.816;2024-01-15T09:13:10;5.50;;;5.00;;
4634;SDS011;2330;48.158;11.816;2024-01-15T09:15:37;5.43;;;4.50;;
4634;SDS011;2330;48.158;11.816;2024-01-15T09:18:04;5.55;;;5.15;;
4634;SDS011;2330;48.158;11.816;2024-01-15T09:20:33;5.25;;;4.85;;
4634;SDS011;2330;48.158;11.816;2024-01-15T09:23:01;5.40;;;5.00;;
4634;SDS011;2330;48.158;11.816;2024-01-15T09:25:28;5.20;;;4.70;;
4634;SDS011;2330;48.158;11.816;2024-01-15T09:27:55;6.05;;;5.18;;
4634;SDS011;2330;48.158;11.816;2024-01-15T09:30:22;5.63;;;5.13;;
4634;SDS011;2330;48.158;11.816;2024-01-15T09:32:48;6.15;;;5.00;;
4634;SDS011;2330;48.158;11.816;2024-01-15T09:35:16;6.20;;;5.70;;
4634;SDS011;2330;48.158;11.816;2024-01-15T09:37:42;5.53;;;5.13;;
4634;SDS011;2330;48.158;11.816;2024-01-15T09:40:14;5.60;;;5.20;;
4634;SDS011;2330;48.158;11.816;2024-01-15T09:42:42;7.03;;;6.43;;
4634;SDS011;2330;48.158;11.816;2024-01-15T09:45:10;6.15;;;5.65;;
4634;SDS011;2330;48.158;11.816;2024-01-15T09:47:37;6.15;;;5.50;;
4634;SDS011;2330;48.158;11.816;2024-01-15T09:50:10;5.82;;;5.40;;
4634;SDS011;2330;48.158;11.816;2024-01-15T09:52:37;7.13;;;6.03;;
4634;SDS011;2330;48.158;11.816;2024-01-15T09:55:05;6.07;;;5.57;;
4634;SDS011;2330;48.158;11.816;2024-01-15T09:57:33;6.00;;;5.50;;
4634;SDS011;2330;48.158;11.816;2024-01-15T10:00:01;5.90;;;5.40;;
4634;SDS011;2330;48.158;11.816;2024-01-15T10:02:31;6.30;;;5.80;;
4634;SDS011;2330;48.158;11.816;2024-01-15T10:04:58;6.25;;;5.63;;
4634;SDS011;2330;48.158;11.816;2024-01-15T10:07:25;4.95;;;4.65;;
4634;SDS011;2330;48.158;11.816;2024-01-15T10:09:54;5.45;;;4.95;;
4634;SDS011;2330;48.158;11.816;2024-01-15T10:12:22;5.13;;;4.60;;
4634;SDS011;2330;48.158;11.816;2024-01-15T10:14:50;5.40;;;5.00;;
4634;SDS011;2330;48.158;11.816;2024-01-15T10:17:17;5.47;;;4.90;;
4634;SDS011;2330;48.158;11.816;2024-01-15T10:19:47;4.85;;;4.53;;
4634;SDS011;2330;48.158;11.816;2024-01-15T10:22:16;6.57;;;4.63;;
4634;SDS011;2330;48.158;11.816;2024-01-15T10:24:44;4.25;;;3.85;;
4634;SDS011;2330;48.158;11.816;2024-01-15T10:27:14;5.35;;;3.95;;
4634;SDS011;2330;48.158;11.816;2024-01-15T10:29:42;3.70;;;3.42;;
4634;SDS011;2330;48.158;11.816;2024-01-15T10:32:09;4.50;;;4.10;;
4634;SDS011;2330;48.158;11.816;2024-01-15T10:34:37;4.78;;;4.35;;
4634;SDS011;2330;48.158;11.816;2024-01-15T10:37:10;3.78;;;3.47;;
4634;SDS011;2330;48.158;11.816;2024-01-15T10:39:37;3.97;;;3.63;;
4634;SDS011;2330;48.158;11.816;2024-01-15T10:42:05;3.58;;;3.38;;
4634;SDS011;2330;48.158;11.816;2024-01-15T10:44:34;3.28;;;3.08;;
4634;SDS011;2330;48.158;11.816;2024-01-15T10:47:01;4.43;;;4.00;;
4634;SDS011;2330;48.158;11.816;2024-01-15T10:49:29;3.45;;;3.25;;
4634;SDS011;2330;48.158;11.816;2024-01-15T10:52:00;4.55;;;3.78;;
4634;SDS011;2330;48.158;11.816;2024-01-15T10:54:28;3.80;;;3.50;;
4634;SDS011;2330;48.158;11.816;2024-01-15T10:56:56;3.45;;;2.95;;
4634;SDS011;2330;48.158;11.816;2024-01-15T10:59:23;2.95;;;2.75;;
4634;SDS011;2330;48.158;11.816;2024-01-15T11:01:51;3.75;;;2.72;;
4634;SDS011;2330;48.158;11.816;2024-01-15T11:04:22;3.00;;;2.80;;
4634;SDS011;2330;48.158;11.816;2024-01-15T11:06:51;3.08;;;2.88;;
4634;SDS011;2330;48.158;11.816;2024-01-15T11:09:21;3.83;;;3.05;;
4634;SDS011;2330;48.158;11.816;2024-01-15T11:11:50;3.80;;;2.80;;
4634;SDS011;2330;48.158;11.816;2024-01-15T11:14:35;4.00;;;3.05;;
4634;SDS011;2330;48.158;11.816;2024-01-15T11:17:12;2.95;;;2.75;;
4634;SDS011;2330;48.158;11.816;2024-01-15T11:19:47;2.50;;;2.40;;
4634;SDS011;2330;48.158;11.816;2024-01-15T11:24:56;3.22;;;2.92;;
4634;SDS011;2330;48.158;11.816;2024-01-15T11:30:13;4.15;;;3.63;;
4634;SDS011;2330;48.158;11.816;2024-01-15T11:32:40;3.22;;;3.03;;
4634;SDS011;2330;48.158;11.816;2024-01-15T11:35:08;3.63;;;3.33;;
4634;SDS011;2330;48.158;11.816;2024-01-15T11:40:19;5.57;;;3.38;;
4634;SDS011;2330;48.158;11.816;2024-01-15T11:42:49;3.88;;;3.58;;
4634;SDS011;2330;48.158;11.816;2024-01-15T11:45:18;3.97;;;3.67;;
4634;SDS011;2330;48.158;11.816;2024-01-15T11:50:25;4.18;;;3.22;;
4634;SDS011;2330;48.158;11.816;2024-01-15T11:53:00;4.80;;;3.50;;
4634;SDS011;2330;48.158;11.816;2024-01-15T11:58:07;3.75;;;3.45;;
4634;SDS011;2330;48.158;11.816;2024-01-15T12:00:42;4.07;;;3.40;;
4634;SDS011;2330;48.158;11.816;2024-01-15T12:03:17;3.10;;;2.90;;
4634;SDS011;2330;48.158;11.816;2024-01-15T12:05:44;3.33;;;3.08;;
4634;SDS011;2330;48.158;11.816;2024-01-15T12:08:11;2.83;;;2.63;;
4634;SDS011;2330;48.158;11.816;2024-01-15T12:10:38;2.70;;;2.50;;
4634;SDS011;2330;48.158;11.816;2024-01-15T12:13:14;3.08;;;2.78;;
4634;SDS011;2330;48.158;11.816;2024-01-15T12:15:44;2.85;;;2.30;;
4634;SDS011;2330;48.158;11.816;2024-01-15T12:18:13;2.80;;;2.60;;
4634;SDS011;2330;48.158;11.816;2024-01-15T12:20:42;2.80;;;2.60;;
4634;SDS011;2330;48.158;11.816;2024-01-15T12:23:10;2.50;;;2.35;;
4634;SDS011;2330;48.158;11.816;2024-01-15T12:25:37;3.20;;;2.85;;
4634;SDS011;2330;48.158;11.816;2024-01-15T12:28:05;3.20;;;2.75;;
4634;SDS011;2330;48.158;11.816;2024-01-15T12:30:33;2.60;;;2.40;;
4634;SDS011;2330;48.158;11.816;2024-01-15T12:33:03;3.00;;;2.80;;
4634;SDS011;2330;48.158;11.816;2024-01-15T12:35:30;2.83;;;2.63;;
4634;SDS011;2330;48.158;11.816;2024-01-15T12:37:59;3.58;;;2.70;;
4634;SDS011;2330;48.158;11.816;2024-01-15T12:40:29;3.92;;;2.38;;
4634;SDS011;2330;48.158;11.816;2024-01-15T12:42:56;6.70;;;2.78;;
4634;SDS011;2330;48.158;11.816;2024-01-15T12:45:23;8.73;;;2.50;;
4634;SDS011;2330;48.158;11.816;2024-01-15T12:47:50;2.70;;;2.50;;
4634;SDS011;2330;48.158;11.816;2024-01-15T12:50:17;2.53;;;2.33;;
4634;SDS011;2330;48.158;11.816;2024-01-15T12:52:46;2.50;;;2.30;;
4634;SDS011;2330;48.158;11.816;2024-01-15T12:55:13;2.20;;;2.10;;
4634;SDS011;2330;48.158;11.816;2024-01-15T12:57:42;3.00;;;2.15;;
4634;SDS011;2330;48.158;11.816;2024-01-15T13:00:09;2.50;;;2.00;;
4634;SDS011;2330;48.158;11.816;2024-01-15T13:02:40;2.80;;;2.60;;
4634;SDS011;2330;48.158;11.816;2024-01-15T13:05:09;3.53;;;3.30;;
4634;SDS011;2330;48.158;11.816;2024-01-15T13:07:41;2.40;;;2.25;;
4634;SDS011;2330;48.158;11.816;2024-01-15T13:10:09;2.50;;;2.30;;
4634;SDS011;2330;48.158;11.816;2024-01-15T13:12:40;2.20;;;2.00;;
4634;SDS011;2330;48.158;11.816;2024-01-15T13:15:08;1.98;;;1.88;;
4634;SDS011;2330;48.158;11.816;2024-01-15T13:17:40;3.45;;;2.25;;
4634;SDS011;2330;48.158;11.816;2024-01-15T13:20:08;2.45;;;2.28;;
4634;SDS011;2330;48.158;11.816;2024-01-15T13:22:36;2.95;;;2.42;;
4634;SDS011;2330;48.158;11.816;2024-01-15T13:25:06;2.63;;;2.53;;
4634;SDS011;2330;48.158;11.816;2024-01-15T13:27:34;2.95;;;2.75;;
4634;SDS011;2330;48.158;11.816;2024-01-15T13:30:05;2.33;;;2.22;;
4634;SDS011;2330;48.158;11.816;2024-01-15T13:32:34;2.10;;;2.00;;
4634;SDS011;2330;48.158;11.816;2024-01-15T13:35:02;2.75;;;2.30;;
4634;SDS011;2330;48.158;11.816;2024-01-15T13:37:31;2.35;;;2.25;;
4634;SDS011;2330;48.158;11.816;2024-01-15T13:39:58;2.40;;;2.20;;
4634;SDS011;2330;48.158;11.816;2024-01-15T13:42:25;3.35;;;3.05;;
4634;SDS011;2330;48.158;11.816;2024-01-15T13:44:53;2.67;;;2.58;;
4634;SDS011;2330;48.158;11.816;2024-01-15T13:47:21;2.80;;;2.60;;
4634;SDS011;2330;48.158;11.816;2024-01-15T13:49:48;2.95;;;2.75;;
4634;SDS011;2330;48.158;11.816;2024-01-15T13:52:15;3.58;;;3.10;;
4634;SDS011;2330;48.158;11.816;2024-01-15T13:54:42;3.10;;;2.80;;
4634;SDS011;2330;48.158;11.816;2024-01-15T13:57:16;3.00;;;2.80;;
4634;SDS011;2330;48.158;11.816;2024-01-15T13:59:44;3.45;;;3.15;;
4634;SDS011;2330;48.158;11.816;2024-01-15T14:02:11;4.63;;;4.32;;
4634;SDS011;2330;48.158;11.816;2024-01-15T14:04:42;3.78;;;3.45;;
4634;SDS011;2330;48.158;11.816;2024-01-15T14:07:09;3.50;;;3.30;;
4634;SDS011;2330;48.158;11.816;2024-01-15T14:09:35;4.38;;;3.10;;
4634;SDS011;2330;48.158;11.816;2024-01-15T14:12:04;2.80;;;2.60;;
4634;SDS011;2330;48.158;11.816;2024-01-15T14:14:31;3.63;;;3.33;;
4634;SDS011;2330;48.158;11.816;2024-01-15T14:16:58;3.60;;;3.33;;
4634;SDS011;2330;48.158;11.816;2024-01-15T14:19:24;4.00;;;3.70;;
4634;SDS011;2330;48.158;11.816;2024-01-15T14:21:51;4.10;;;3.67;;
4634;SDS011;2330;48.158;11.816;2024-01-15T14:24:18;4.10;;;3.80;;
4634;SDS011;2330;48.158;11.816;2024-01-15T14:26:45;6.47;;;5.90;;
4634;SDS011;2330;48.158;11.816;2024-01-15T14:29:12;4.18;;;3.88;;
4634;SDS011;2330;48.158;11.816;2024-01-15T14:31:39;4.78;;;4.40;;
4634;SDS011;2330;48.158;11.816;2024-01-15T14:34:06;4.57;;;4.22;;
4634;SDS011;2330;48.158;11.816;2024-01-15T14:36:34;4.10;;;3.78;;
4634;SDS011;2330;48.158;11.816;2024-01-15T14:39:01;3.88;;;3.60;;
4634;SDS011;2330;48.158;11.816;2024-01-15T14:41:29;3.97;;;3.67;;
4634;SDS011;2330;48.158;11.816;2024-01-15T14:43:56;3.80;;;3.50;;
4634;SDS011;2330;48.158;11.816;2024-01-15T14:46:23;7.10;;;6.60;;
4634;SDS011;2330;48.158;11.816;2024-01-15T14:48:50;4.28;;;3.97;;
4634;SDS011;2330;48.158;11.816;2024-01-15T14:51:17;7.20;;;6.40;;
4634;SDS011;2330;48.158;11.816;2024-01-15T14:53:44;6.30;;;5.70;;
4634;SDS011;2330;48.158;11.816;2024-01-15T14:56:11;4.03;;;3.63;;
4634;SDS011;2330;48.158;11.816;2024-01-15T14:58:41;4.45;;;3.45;;
4634;SDS011;2330;48.158;11.816;2024-01-15T15:01:09;4.00;;;3.70;;
4634;SDS011;2330;48.158;11.816;2024-01-15T15:03:36;5.53;;;4.18;;
4634;SDS011;2330;48.158;11.816;2024-01-15T15:06:03;3.10;;;2.88;;
4634;SDS011;2330;48.158;11.816;2024-01-15T15:08:30;3.33;;;3.03;;
4634;SDS011;2330;48.158;11.816;2024-01-15T15:10:57;3.40;;;3.20;;
4634;SDS011;2330;48.158;11.816;2024-01-15T15:13:24;4.03;;;2.85;;
4634;SDS011;2330;48.158;11.816;2024-01-15T15:16:09;4.60;;;3.80;;
4634;SDS011;2330;48.158;11.816;2024-01-15T15:18:37;3.15;;;2.95;;